createdAt,value
2019-03-18T00:00:24.919Z,91.06
2019-03-18T00:03:30.100Z,90.71
2019-03-18T00:06:35.260Z,89.97
2019-03-18T00:09:40.871Z,91.09
2019-03-18T00:12:46.014Z,91.61
2019-03-18T00:15:51.191Z,92.93
2019-03-18T00:18:56.345Z,92.89
2019-03-18T00:22:01.530Z,92.77
2019-03-18T00:25:06.998Z,91.41
2019-03-18T00:28:12.221Z,92.26
2019-03-18T00:31:17.375Z,93.35
2019-03-18T00:34:22.529Z,93.53
2019-03-18T00:37:27.624Z,92.74
2019-03-18T00:40:33.053Z,92.39
2019-03-18T00:43:38.238Z,90.93
2019-03-18T00:46:43.350Z,90.46
2019-03-18T00:49:48.476Z,90.28
2019-03-18T00:52:53.648Z,91.44
2019-03-18T00:55:58.806Z,92.17
2019-03-18T00:59:03.869Z,92.31
2019-03-18T01:02:09.001Z,93.15
2019-03-18T01:05:14.444Z,92.96
2019-03-18T01:08:19.659Z,90.63
2019-03-18T01:11:24.808Z,90.38
2019-03-18T01:14:29.923Z,90.50
2019-03-18T01:17:35.246Z,89.98
2019-03-18T01:20:40.478Z,90.25
2019-03-18T01:23:45.573Z,90.45
2019-03-18T01:26:50.684Z,87.50
2019-03-18T01:29:55.825Z,88.37
2019-03-18T01:33:01.009Z,90.35
2019-03-18T01:36:06.181Z,89.98
2019-03-18T01:39:11.382Z,86.09
2019-03-18T01:42:16.974Z,87.57
2019-03-18T01:45:22.216Z,86.24
2019-03-18T01:48:27.344Z,88.60
2019-03-18T01:51:32.452Z,86.65
2019-03-18T01:54:37.559Z,87.17
2019-03-18T01:57:42.649Z,86.83
2019-03-18T02:00:47.754Z,86.01
2019-03-18T02:03:52.851Z,87.32
2019-03-18T02:06:58.053Z,87.59
2019-03-18T02:10:03.317Z,87.49
2019-03-18T02:13:08.487Z,87.71
2019-03-18T02:16:13.611Z,87.63
2019-03-18T02:19:18.756Z,88.20
2019-03-18T02:22:23.979Z,89.27
2019-03-18T02:25:29.078Z,88.94
2019-03-18T02:28:34.205Z,89.45
2019-03-18T02:31:40.440Z,89.82
2019-03-18T02:34:45.527Z,89.20
2019-03-18T02:37:50.680Z,90.64
2019-03-18T02:40:55.840Z,90.24
2019-03-18T02:44:00.972Z,91.01
2019-03-18T02:47:06.094Z,91.97
2019-03-18T02:50:12.328Z,92.95
2019-03-18T02:53:17.495Z,92.85
2019-03-18T02:56:22.655Z,92.71
2019-03-18T02:59:27.799Z,93.00
2019-03-18T03:02:32.848Z,92.44
2019-03-18T03:05:38.972Z,91.62
2019-03-18T03:08:44.124Z,91.90
2019-03-18T03:11:49.257Z,92.28
2019-03-18T03:14:54.414Z,92.38
2019-03-18T03:17:59.496Z,92.29
2019-03-18T03:21:04.608Z,91.48
2019-03-18T03:24:09.799Z,91.78
2019-03-18T03:27:14.914Z,92.36
2019-03-18T03:30:20.048Z,93.54
2019-03-18T03:33:25.217Z,93.50
2019-03-18T03:36:30.337Z,93.89
2019-03-18T03:39:35.539Z,93.54
2019-03-18T03:42:40.670Z,94.28
2019-03-18T03:45:45.756Z,95.01
2019-03-18T03:48:50.890Z,95.74
2019-03-18T03:51:56.051Z,96.49
2019-03-18T03:55:01.227Z,96.95
2019-03-18T03:58:06.471Z,97.04
2019-03-18T04:01:11.635Z,97.60
2019-03-18T04:04:16.729Z,97.89
2019-03-18T04:07:21.871Z,98.20
2019-03-18T04:10:26.951Z,97.69
2019-03-18T04:13:32.090Z,97.41
2019-03-18T04:16:37.213Z,96.82
2019-03-18T04:19:42.260Z,96.77
2019-03-18T04:22:47.364Z,96.46
2019-03-18T04:25:52.575Z,93.19
2019-03-18T04:28:57.719Z,91.45
2019-03-18T04:32:02.847Z,91.05
2019-03-18T04:35:07.975Z,91.01
2019-03-18T04:38:13.084Z,90.14
2019-03-18T04:41:18.280Z,89.89
2019-03-18T04:44:24.541Z,89.60
2019-03-18T04:47:29.661Z,88.97
2019-03-18T04:50:34.755Z,87.96
2019-03-18T04:53:39.924Z,88.80
2019-03-18T04:56:45.031Z,89.65
2019-03-18T04:59:50.134Z,90.50
2019-03-18T05:02:55.286Z,90.01
2019-03-18T05:06:00.468Z,89.85
2019-03-18T05:09:07.800Z,89.06
2019-03-18T05:12:12.908Z,87.18
2019-03-18T05:15:18.045Z,86.49
2019-03-18T05:18:23.163Z,86.48
2019-03-18T05:21:28.341Z,88.98
2019-03-18T05:24:33.401Z,88.69
2019-03-18T05:27:38.527Z,88.59
2019-03-18T05:30:43.683Z,88.42
2019-03-18T05:33:48.806Z,88.00
2019-03-18T05:36:53.973Z,87.38
2019-03-18T05:39:59.074Z,86.94
2019-03-18T05:43:04.215Z,87.97
2019-03-18T05:46:09.347Z,87.27
2019-03-18T05:49:14.470Z,87.67
2019-03-18T05:52:19.621Z,88.11
2019-03-18T05:55:24.767Z,86.90
2019-03-18T05:58:29.878Z,86.83
2019-03-18T06:01:35.002Z,86.02
2019-03-18T06:04:40.255Z,85.77
2019-03-18T06:07:45.363Z,86.95
2019-03-18T06:10:50.563Z,86.25
2019-03-18T06:13:56.665Z,86.03
2019-03-18T06:17:01.915Z,86.14
2019-03-18T06:20:07.978Z,86.45
2019-03-18T06:23:13.161Z,86.04
2019-03-18T06:26:18.373Z,84.85
2019-03-18T06:29:23.500Z,85.00
2019-03-18T06:32:28.640Z,84.90
2019-03-18T06:35:33.852Z,85.75
2019-03-18T06:38:38.966Z,84.59
2019-03-18T06:41:44.123Z,84.95
2019-03-18T06:44:49.369Z,85.88
2019-03-18T06:48:04.139Z,85.66
2019-03-18T06:51:01.355Z,85.86
2019-03-18T06:54:06.523Z,85.37
2019-03-18T06:57:11.614Z,85.10
2019-03-18T07:00:17.768Z,83.75
2019-03-18T07:03:22.909Z,83.55
2019-03-18T07:06:28.057Z,83.50
2019-03-18T07:09:33.170Z,82.96
2019-03-18T07:12:38.241Z,81.65
2019-03-18T07:15:43.403Z,80.71
2019-03-18T07:18:48.568Z,80.36
2019-03-18T07:21:53.839Z,78.68
2019-03-18T07:24:59.025Z,77.46
2019-03-18T07:28:04.143Z,77.96
2019-03-18T07:31:09.298Z,76.18
2019-03-18T07:34:14.449Z,75.49
2019-03-18T07:37:19.610Z,73.81
2019-03-18T07:40:24.836Z,72.58
2019-03-18T07:43:29.990Z,73.21
2019-03-18T07:46:35.162Z,72.92
2019-03-18T07:49:40.255Z,73.72
2019-03-18T07:52:45.395Z,73.43
2019-03-18T07:55:50.516Z,72.25
2019-03-18T07:58:56.733Z,72.71
2019-03-18T08:02:01.816Z,72.74
2019-03-18T08:05:08.174Z,73.10
2019-03-18T08:08:13.455Z,72.63
2019-03-18T08:11:18.634Z,73.55
2019-03-18T08:14:23.726Z,73.88
2019-03-18T08:17:28.980Z,73.41
2019-03-18T08:20:34.111Z,73.80
2019-03-18T08:24:11.671Z,72.90
2019-03-18T08:27:16.942Z,73.42
2019-03-18T08:30:22.048Z,73.92
2019-03-18T08:33:27.245Z,75.00
2019-03-18T08:36:32.444Z,71.93
2019-03-18T08:39:37.721Z,75.05
2019-03-18T08:42:42.930Z,75.64
2019-03-18T08:45:48.057Z,74.75
2019-03-18T08:48:56.007Z,74.30
2019-03-18T08:52:00.128Z,74.87
2019-03-18T08:55:05.534Z,74.86
2019-03-18T08:58:10.742Z,78.63
2019-03-18T09:01:15.905Z,78.02
2019-03-18T09:04:21.156Z,78.46
2019-03-18T09:07:26.328Z,79.12
2019-03-18T09:10:32.439Z,79.09
2019-03-18T09:13:37.619Z,83.05
2019-03-18T09:16:42.796Z,80.83
2019-03-18T09:19:47.948Z,81.55
2019-03-18T09:22:53.172Z,81.85
2019-03-18T09:25:58.375Z,81.70
2019-03-18T09:29:03.569Z,80.77
2019-03-18T09:32:08.664Z,79.32
2019-03-18T09:35:13.822Z,78.77
2019-03-18T09:38:19.005Z,79.05
2019-03-18T09:41:24.143Z,78.48
2019-03-18T09:44:29.311Z,78.72
2019-03-18T09:47:34.593Z,75.86
2019-03-18T09:50:39.767Z,74.34
2019-03-18T09:53:45.018Z,77.29
2019-03-18T09:56:50.119Z,78.45
2019-03-18T09:59:55.275Z,80.96
2019-03-18T10:03:00.451Z,79.46
2019-03-18T10:06:05.663Z,76.56
2019-03-18T10:09:10.791Z,78.32
2019-03-18T10:12:15.971Z,78.25
2019-03-18T10:15:21.234Z,79.67
2019-03-18T10:18:26.412Z,80.33
2019-03-18T10:21:31.594Z,76.24
2019-03-18T10:24:36.799Z,74.24
2019-03-18T10:27:42.014Z,73.71
2019-03-18T10:30:47.133Z,74.02
2019-03-18T10:33:52.401Z,72.21
2019-03-18T10:36:57.581Z,71.30
2019-03-18T10:40:03.923Z,71.31
2019-03-18T10:43:09.067Z,72.07
2019-03-18T10:46:14.166Z,75.00
2019-03-18T10:49:19.425Z,75.84
2019-03-18T10:52:24.551Z,75.42
2019-03-18T10:55:29.729Z,71.01
2019-03-18T10:58:34.819Z,74.72
2019-03-18T11:01:40.041Z,71.40
2019-03-18T11:04:45.139Z,73.22
2019-03-18T11:07:51.751Z,71.62
2019-03-18T11:10:58.202Z,71.94
2019-03-18T11:14:03.510Z,74.22
2019-03-18T11:17:09.671Z,74.05
2019-03-18T11:20:14.898Z,75.46
2019-03-18T11:23:20.109Z,70.52
2019-03-18T11:26:25.379Z,70.76
2019-03-18T11:29:30.495Z,72.80
2019-03-18T11:32:35.739Z,72.36
2019-03-18T11:35:40.826Z,70.19
2019-03-18T11:39:16.105Z,73.27
2019-03-18T11:42:21.300Z,80.72
2019-03-18T11:45:26.427Z,84.60
2019-03-18T11:48:31.574Z,84.96
2019-03-18T11:51:36.718Z,84.83
2019-03-18T11:54:41.906Z,85.20
2019-03-18T11:57:47.015Z,84.18
2019-03-18T12:00:52.211Z,85.06
2019-03-18T12:03:57.394Z,84.43
2019-03-18T12:07:02.550Z,84.36
2019-03-18T12:10:09.949Z,84.66
2019-03-18T12:13:16.284Z,86.40
2019-03-18T12:16:21.557Z,86.46
2019-03-18T12:19:26.754Z,87.41
2019-03-18T12:22:31.867Z,87.64
2019-03-18T12:25:37.005Z,82.33
2019-03-18T12:28:42.153Z,81.21
2019-03-18T12:31:47.360Z,82.38
2019-03-18T12:34:53.526Z,80.17
2019-03-18T12:37:58.714Z,78.62
2019-03-18T12:41:03.837Z,78.51
2019-03-18T12:44:09.034Z,78.41
2019-03-18T12:47:14.162Z,75.04
2019-03-18T12:50:36.369Z,72.77
2019-03-18T12:53:26.484Z,72.88
2019-03-18T12:56:31.612Z,72.74
2019-03-18T12:59:36.843Z,72.82
2019-03-18T13:02:42.078Z,74.40
2019-03-18T13:05:47.247Z,70.28
2019-03-18T13:08:52.363Z,70.95
2019-03-18T13:11:57.588Z,70.12
2019-03-18T13:15:02.799Z,70.22
2019-03-18T13:18:07.995Z,69.35
2019-03-18T13:21:13.093Z,69.12
2019-03-18T13:24:18.204Z,72.02
2019-03-18T13:27:23.351Z,75.99
2019-03-18T13:30:28.456Z,82.25
2019-03-18T13:33:33.575Z,87.25
2019-03-18T13:36:38.816Z,88.15
2019-03-18T13:39:43.942Z,87.82
2019-03-18T13:42:49.139Z,88.39
2019-03-18T13:45:55.530Z,87.91
2019-03-18T13:49:00.965Z,87.61
2019-03-18T13:52:06.179Z,84.38
2019-03-18T13:55:11.361Z,84.42
2019-03-18T13:58:16.544Z,84.22
2019-03-18T14:01:21.735Z,84.66
2019-03-18T14:04:28.012Z,82.54
2019-03-18T14:07:33.147Z,85.51
2019-03-18T14:10:38.247Z,85.28
2019-03-18T14:13:43.497Z,86.45
2019-03-18T14:16:48.613Z,82.73
2019-03-18T14:19:53.815Z,81.61
2019-03-18T14:22:58.982Z,82.37
2019-03-18T14:26:04.085Z,82.61
2019-03-18T14:29:09.261Z,81.47
2019-03-18T14:32:14.395Z,82.87
2019-03-18T14:35:21.678Z,79.10
2019-03-18T14:38:26.379Z,79.14
2019-03-18T14:41:31.527Z,81.70
2019-03-18T14:44:36.692Z,84.83
2019-03-18T14:47:41.830Z,84.59
2019-03-18T14:50:47.032Z,85.54
2019-03-18T14:53:52.147Z,84.27
2019-03-18T14:56:57.315Z,87.80
2019-03-18T15:00:02.462Z,87.51
2019-03-18T15:03:08.857Z,85.40
2019-03-18T15:06:14.066Z,85.93
2019-03-18T15:09:19.306Z,85.66
2019-03-18T15:12:24.577Z,84.52
2019-03-18T15:15:29.698Z,85.29
2019-03-18T15:18:34.933Z,84.92
2019-03-18T15:21:40.120Z,84.21
2019-03-18T15:24:45.218Z,84.35
2019-03-18T15:27:50.314Z,84.98
2019-03-18T15:30:55.501Z,86.46
2019-03-18T15:34:00.686Z,85.82
2019-03-18T15:37:05.849Z,85.68
2019-03-18T15:40:11.754Z,86.07
2019-03-18T15:43:16.887Z,87.49
2019-03-18T15:46:21.975Z,88.22
2019-03-18T15:49:27.142Z,89.18
2019-03-18T15:52:33.217Z,88.75
2019-03-18T15:55:38.409Z,88.71
2019-03-18T15:58:43.536Z,89.37
2019-03-18T16:01:48.683Z,90.50
2019-03-18T16:04:53.790Z,91.13
2019-03-18T16:07:59.009Z,91.91
2019-03-18T16:11:04.149Z,93.25
2019-03-18T16:14:09.363Z,93.64
2019-03-18T16:17:14.579Z,94.10
2019-03-18T16:20:19.815Z,93.05
2019-03-18T16:23:26.070Z,93.26
2019-03-18T16:26:31.251Z,91.92
2019-03-18T16:29:36.389Z,91.25
2019-03-18T16:32:41.514Z,91.00
2019-03-18T16:35:48.206Z,91.28
2019-03-18T16:38:54.365Z,92.33
2019-03-18T16:41:59.541Z,92.44
2019-03-18T16:45:04.847Z,92.06
2019-03-18T16:48:09.953Z,93.15
2019-03-18T16:51:15.146Z,93.21
2019-03-18T16:54:20.268Z,93.66
2019-03-18T16:57:25.498Z,93.23
2019-03-18T17:00:30.732Z,93.51
2019-03-18T17:03:35.811Z,94.81
2019-03-18T17:06:42.022Z,95.48
2019-03-18T17:09:47.151Z,96.68
2019-03-18T17:12:52.336Z,97.21
2019-03-18T17:15:57.465Z,98.23
2019-03-18T17:19:02.608Z,98.58
2019-03-18T17:22:07.743Z,98.80
2019-03-18T17:25:14.950Z,99.07
2019-03-18T17:28:20.083Z,99.25
2019-03-18T17:31:25.359Z,99.53
2019-03-18T17:34:30.511Z,99.74
2019-03-18T17:37:36.749Z,99.80
2019-03-18T17:40:41.940Z,100.00
2019-03-18T17:43:47.126Z,100.00
2019-03-18T17:46:52.301Z,100.00
2019-03-18T17:49:57.438Z,99.51
2019-03-18T17:53:03.977Z,98.46
2019-03-18T17:56:09.483Z,97.74
2019-03-18T17:59:14.679Z,97.29
2019-03-18T18:02:19.869Z,97.55
2019-03-18T18:05:25.032Z,98.13
2019-03-18T18:08:30.289Z,98.62
2019-03-18T18:11:35.505Z,99.12
2019-03-18T18:14:40.707Z,99.53
2019-03-18T18:17:46.286Z,100.00
2019-03-18T18:20:51.535Z,100.00
2019-03-18T18:23:56.665Z,100.00
2019-03-18T18:27:01.869Z,100.00
2019-03-18T18:30:07.575Z,100.00
2019-03-18T18:33:12.759Z,100.00
2019-03-18T18:36:17.960Z,100.00
2019-03-18T18:39:23.180Z,100.00
2019-03-18T18:42:28.249Z,100.00
2019-03-18T18:45:33.499Z,100.00
2019-03-18T18:48:38.681Z,100.00
2019-03-18T18:51:44.011Z,100.00
2019-03-18T18:54:49.169Z,100.00
2019-03-18T18:57:54.353Z,100.00
2019-03-18T19:00:59.591Z,100.00
2019-03-18T19:04:04.966Z,100.00
2019-03-18T19:07:10.203Z,100.00
2019-03-18T19:10:15.501Z,100.00
2019-03-18T19:13:20.649Z,100.00
2019-03-18T19:16:25.836Z,100.00
2019-03-18T19:19:32.363Z,100.00
2019-03-18T19:22:37.571Z,100.00
2019-03-18T19:25:42.799Z,100.00
2019-03-18T19:28:48.003Z,100.00
2019-03-18T19:31:53.198Z,100.00
2019-03-18T19:34:58.418Z,100.00
2019-03-18T19:38:03.821Z,100.00
2019-03-18T19:41:09.307Z,100.00
2019-03-18T19:44:15.472Z,100.00
2019-03-18T19:47:21.910Z,100.00
2019-03-18T19:50:27.146Z,100.00
2019-03-18T19:53:32.293Z,100.00
2019-03-18T19:56:37.447Z,100.00
2019-03-18T19:59:42.564Z,100.00
2019-03-18T20:02:47.711Z,100.00
2019-03-18T20:05:52.958Z,100.00
2019-03-18T20:08:58.231Z,100.00
2019-03-18T20:12:03.442Z,100.00
2019-03-18T20:15:10.344Z,100.00
2019-03-18T20:18:15.544Z,100.00
2019-03-18T20:21:20.710Z,100.00
2019-03-18T20:24:25.903Z,100.00
2019-03-18T20:27:31.072Z,100.00
2019-03-18T20:30:36.285Z,100.00
2019-03-18T20:33:41.530Z,100.00
2019-03-18T20:36:47.773Z,100.00
2019-03-18T20:39:53.055Z,100.00
2019-03-18T20:42:58.266Z,100.00
2019-03-18T20:46:03.449Z,100.00
2019-03-18T20:49:09.681Z,100.00
2019-03-18T20:52:17.028Z,100.00
2019-03-18T20:55:22.102Z,100.00
2019-03-18T20:58:27.270Z,100.00
2019-03-18T21:01:32.465Z,100.00
2019-03-18T21:04:37.591Z,100.00
2019-03-18T21:07:42.826Z,100.00
2019-03-18T21:10:48.003Z,100.00
2019-03-18T21:13:57.348Z,100.00
2019-03-18T21:17:00.165Z,100.00
2019-03-18T21:20:06.330Z,100.00
2019-03-18T21:23:11.518Z,100.00
2019-03-18T21:26:16.769Z,100.00
2019-03-18T21:29:22.044Z,100.00
2019-03-18T21:32:27.206Z,100.00
2019-03-18T21:35:32.422Z,100.00
2019-03-18T21:38:37.665Z,100.00
2019-03-18T21:41:42.796Z,100.00
2019-03-18T21:44:48.007Z,100.00
2019-03-18T21:47:53.143Z,100.00
2019-03-18T21:50:58.319Z,100.00
2019-03-18T21:54:03.430Z,100.00
2019-03-18T21:57:09.208Z,100.00
2019-03-18T22:00:15.876Z,100.00
2019-03-18T22:03:21.129Z,100.00
2019-03-18T22:06:26.313Z,100.00
2019-03-18T22:09:31.410Z,100.00
2019-03-18T22:12:36.622Z,100.00
2019-03-18T22:15:41.770Z,100.00
2019-03-18T22:18:46.905Z,100.00
2019-03-18T22:21:52.117Z,100.00
2019-03-18T22:24:57.273Z,100.00
2019-03-18T22:28:02.542Z,100.00
2019-03-18T22:31:07.704Z,100.00
2019-03-18T22:34:12.914Z,100.00
2019-03-18T22:37:18.131Z,100.00
2019-03-18T22:40:23.309Z,100.00
2019-03-18T22:43:28.457Z,100.00
2019-03-18T22:46:33.641Z,100.00
2019-03-18T22:49:38.767Z,100.00
2019-03-18T22:52:43.897Z,100.00
2019-03-18T22:55:49.128Z,100.00
2019-03-18T22:58:54.230Z,100.00
2019-03-18T23:01:59.438Z,100.00
2019-03-18T23:05:05.120Z,100.00
2019-03-18T23:08:10.288Z,100.00
2019-03-18T23:11:15.418Z,100.00
2019-03-18T23:14:21.657Z,100.00
2019-03-18T23:17:26.815Z,100.00
2019-03-18T23:20:32.001Z,100.00
2019-03-18T23:23:37.172Z,100.00
2019-03-18T23:26:42.442Z,100.00
2019-03-18T23:29:47.592Z,100.00
2019-03-18T23:32:52.864Z,100.00
2019-03-18T23:35:58.032Z,100.00
2019-03-18T23:39:03.847Z,100.00
2019-03-18T23:42:08.945Z,100.00
2019-03-18T23:45:14.354Z,100.00
2019-03-18T23:48:19.509Z,100.00
2019-03-18T23:51:24.689Z,100.00
2019-03-18T23:54:30.254Z,100.00
2019-03-18T23:57:35.474Z,100.00
